Time;durP1;ratioP1;P1;durP2;ratioP2;P2;SDS_P1;SDS_P2;PMS_P1;PMS_P2;Temp;Humidity;BMP_temperature;BMP_pressure;BME280_temperature;BME280_humidity;BME280_pressure;Samples;Min_cycle;Max_cycle;Signal;HPM_P1;HPM_P2
2020/12/16 00:02:24;;;;;;;69.25;26.40;;;;;;;1.60;81.41;100561.71;1711912;83;21172;-60
2020/12/16 00:04:52;;;;;;;78.28;25.88;;;;;;;1.55;81.47;100560.14;1658416;83;21160;-60
2020/12/16 00:07:20;;;;;;;48.70;26.50;;;;;;;1.44;81.47;100561.99;1694063;83;21185;-60
2020/12/16 00:09:47;;;;;;;47.83;26.85;;;;;;;1.44;81.35;100566.86;1703693;83;21164;-61
2020/12/16 00:12:15;;;;;;;69.67;30.72;;;;;;;1.50;81.23;100565.23;1698437;83;21378;-60
2020/12/16 00:14:45;;;;;;;82.42;35.08;;;;;;;1.45;81.46;100567.15;1718955;83;21337;-61
2020/12/16 00:17:13;;;;;;;97.85;35.50;;;;;;;1.37;81.61;100571.83;1690225;84;21189;-60
2020/12/16 00:19:41;;;;;;;67.20;34.03;;;;;;;1.26;81.89;100572.34;1686435;84;21118;-60
2020/12/16 00:22:08;;;;;;;78.72;37.13;;;;;;;1.32;81.82;100572.91;1706504;82;21320;-60
2020/12/16 00:24:36;;;;;;;95.38;37.33;;;;;;;1.42;81.50;100568.87;1680884;85;21331;-60
2020/12/16 00:27:03;;;;;;;82.57;35.65;;;;;;;1.37;81.66;100567.81;1697558;84;21304;-60
2020/12/16 00:29:31;;;;;;;92.62;37.13;;;;;;;1.30;81.84;100566.91;1706221;84;21154;-60
2020/12/16 00:31:58;;;;;;;67.05;32.70;;;;;;;1.21;82.03;100566.70;1709123;82;21742;-60
2020/12/16 00:34:25;;;;;;;64.58;34.48;;;;;;;1.22;81.90;100566.53;1689081;84;21185;-60
2020/12/16 00:36:53;;;;;;;75.40;31.33;;;;;;;1.32;81.56;100571.56;1687180;84;21190;-60
2020/12/16 00:39:20;;;;;;;73.52;28.90;;;;;;;1.25;81.92;100566.64;1683067;84;21114;-60
2020/12/16 00:41:47;;;;;;;61.58;26.50;;;;;;;1.20;82.16;100565.06;1690110;82;21300;-60
2020/12/16 00:44:15;;;;;;;56.75;27.00;;;;;;;1.15;82.42;100566.97;1680358;84;21158;-60
2020/12/16 00:46:42;;;;;;;55.78;27.15;;;;;;;1.24;82.22;100565.81;1683960;84;21185;-60
2020/12/16 00:49:10;;;;;;;67.97;27.90;;;;;;;1.30;81.97;100562.39;1673064;84;21161;-60
2020/12/16 00:51:37;;;;;;;70.83;26.20;;;;;;;1.25;82.22;100561.28;1666710;84;21602;-60
2020/12/16 00:54:05;;;;;;;61.68;26.20;;;;;;;1.18;82.33;100560.39;1661757;84;21174;-60
2020/12/16 00:56:33;;;;;;;54.67;26.15;;;;;;;1.12;82.45;100557.97;1698941;84;21145;-60
2020/12/16 00:59:01;;;;;;;56.30;25.88;;;;;;;1.27;82.16;100553.89;1656758;85;21145;-60
2020/12/16 01:01:29;;;;;;;64.97;26.25;;;;;;;1.34;82.05;100556.96;1693881;84;21161;-60
2020/12/16 01:03:57;;;;;;;84.90;27.55;;;;;;;1.27;82.20;100556.07;1666739;84;21126;-60
2020/12/16 01:06:24;;;;;;;59.00;28.77;;;;;;;1.20;82.51;100557.86;1641924;84;21673;-60
2020/12/16 01:08:52;;;;;;;64.77;33.67;;;;;;;1.18;82.64;100559.88;1679725;83;21593;-60
2020/12/16 01:11:20;;;;;;;79.27;36.93;;;;;;;1.30;82.21;100556.19;1683478;84;21323;-60
2020/12/16 01:13:47;;;;;;;77.00;34.55;;;;;;;1.29;82.07;100549.98;1699992;84;21165;-60
2020/12/16 01:16:15;;;;;;;64.62;26.15;;;;;;;1.17;82.26;100539.98;1707076;82;21173;-60
2020/12/16 01:18:42;;;;;;;49.80;25.02;;;;;;;1.03;82.56;100540.86;1673393;84;21331;-60
2020/12/16 01:21:11;;;;;;;53.40;25.27;;;;;;;1.03;82.63;100532.82;1696170;82;21965;-60
2020/12/16 01:23:45;;;;;;;55.35;24.30;;;;;;;1.10;82.43;100538.54;1647941;85;21307;-60
2020/12/16 01:26:13;;;;;;;68.70;23.65;;;;;;;1.03;82.69;100529.59;1687752;84;21307;-60
2020/12/16 01:28:42;;;;;;;55.58;24.40;;;;;;;0.93;82.94;100521.05;1679550;84;21160;-60
2020/12/16 01:31:10;;;;;;;60.58;28.25;;;;;;;0.83;83.18;100525.39;1709210;84;21165;-59
2020/12/16 01:33:38;;;;;;;51.58;24.98;;;;;;;0.92;83.03;100531.47;1706785;84;21736;-60
2020/12/16 01:36:07;;;;;;;82.57;27.70;;;;;;;1.00;82.88;100523.28;1708845;82;21187;-60
2020/12/16 01:38:34;;;;;;;85.30;28.87;;;;;;;0.97;83.19;100528.53;1701667;84;21303;-60
2020/12/16 01:41:07;;;;;;;52.83;27.82;;;;;;;0.88;83.37;100519.47;1706564;82;21381;-60
2020/12/16 01:43:43;;;;;;;63.13;27.10;;;;;;;0.96;83.20;100525.52;1806548;79;22860;-59
2020/12/16 01:46:13;;;;;;;62.48;25.52;;;;;;;0.94;83.06;100524.89;1764610;80;21149;-59
2020/12/16 01:48:41;;;;;;;93.15;29.07;;;;;;;0.86;83.39;100517.47;1757578;80;21125;-59
2020/12/16 01:51:15;;;;;;;50.90;26.93;;;;;;;0.77;83.64;100522.64;1758122;80;21133;-60
2020/12/16 01:53:45;;;;;;;81.72;28.38;;;;;;;0.82;83.62;100512.99;1759551;81;21114;-59
2020/12/16 01:56:13;;;;;;;83.50;30.60;;;;;;;0.90;83.45;100512.05;1765605;80;21156;-60
2020/12/16 01:58:48;;;;;;;109.78;29.10;;;;;;;0.86;83.69;100508.92;1756642;80;21201;-60
2020/12/16 02:01:17;;;;;;;71.53;31.85;;;;;;;0.80;83.93;100506.17;1757230;81;21169;-60
2020/12/16 02:03:45;;;;;;;88.33;33.90;;;;;;;0.87;83.85;100504.39;1758484;80;21168;-59
2020/12/16 02:06:14;;;;;;;74.87;32.50;;;;;;;0.96;83.52;100505.91;1758131;80;21974;-60
2020/12/16 02:08:42;;;;;;;71.35;29.95;;;;;;;0.87;83.73;100503.89;1768289;80;21275;-60
2020/12/16 02:11:12;;;;;;;52.53;28.95;;;;;;;0.76;84.14;100504.89;1765791;80;21206;-60
2020/12/16 02:13:41;;;;;;;52.13;28.20;;;;;;;0.78;84.10;100493.48;1755899;81;21145;-59
2020/12/16 02:16:09;;;;;;;65.15;30.43;;;;;;;0.85;83.92;100496.52;1743559;80;21311;-60
2020/12/16 02:18:36;;;;;;;74.05;30.00;;;;;;;0.79;84.18;100496.46;1670273;83;21185;-59
2020/12/16 02:21:06;;;;;;;56.37;29.57;;;;;;;0.72;84.49;100496.90;1706239;83;21181;-59
2020/12/16 02:23:35;;;;;;;61.05;31.02;;;;;;;0.79;84.38;100499.14;1702754;82;21639;-59
2020/12/16 02:26:03;;;;;;;64.62;30.12;;;;;;;0.90;84.13;100499.98;1673291;83;21190;-59
2020/12/16 02:28:32;;;;;;;64.95;29.25;;;;;;;0.82;84.36;100496.91;1700096;83;21159;-59
2020/12/16 02:32:35;;;;;;;49.48;26.87;;;;;;;0.80;84.71;100501.64;1758438;79;23141;-58
2020/12/16 02:35:03;;;;;;;53.35;28.27;;;;;;;0.80;84.55;100498.13;1730592;82;21125;-58
2020/12/16 02:37:30;;;;;;;76.57;29.32;;;;;;;0.84;84.39;100500.75;1702821;83;21208;-58
2020/12/16 02:39:58;;;;;;;56.85;26.00;;;;;;;0.76;84.65;100507.06;1704405;83;21180;-58
2020/12/16 02:42:28;;;;;;;58.42;28.30;;;;;;;0.69;84.96;100495.95;1672693;83;21303;-58
2020/12/16 02:45:01;;;;;;;53.98;27.93;;;;;;;0.71;84.89;100498.75;1661712;85;21164;-58
2020/12/16 02:47:34;;;;;;;62.38;27.42;;;;;;;0.82;84.63;100494.73;1798790;78;22635;-59
2020/12/16 02:50:03;;;;;;;68.92;27.98;;;;;;;0.74;84.85;100500.23;1775635;80;21170;-59
2020/12/16 02:52:34;;;;;;;57.10;28.95;;;;;;;0.68;85.10;100500.98;1770448;80;21128;-59
2020/12/16 02:55:03;;;;;;;55.48;28.70;;;;;;;0.75;85.03;100497.86;1743553;81;21098;-59
2020/12/16 02:57:39;;;;;;;48.50;24.77;;;;;;;0.84;84.76;100490.03;1759032;79;22858;-59
2020/12/16 03:00:08;;;;;;;64.53;27.15;;;;;;;0.73;84.98;100487.84;1744011;82;21597;-58
2020/12/16 03:02:51;;;;;;;43.58;24.45;;;;;;;0.69;85.23;100488.73;1789249;79;22855;-58
2020/12/16 03:05:20;;;;;;;50.35;25.12;;;;;;;0.70;85.13;100490.91;1681863;83;21806;-60
2020/12/16 03:07:48;;;;;;;66.53;29.50;;;;;;;0.78;84.83;100495.63;1656420;83;21137;-61
2020/12/16 03:10:15;;;;;;;73.05;28.98;;;;;;;0.71;85.00;100497.41;1675709;82;21202;-60
2020/12/16 03:12:43;;;;;;;56.88;28.42;;;;;;;0.63;85.31;100496.20;1732541;82;21173;-61
2020/12/16 03:15:12;;;;;;;56.53;29.18;;;;;;;0.72;85.24;100500.92;1702051;82;21631;-60
2020/12/16 03:17:40;;;;;;;75.30;30.95;;;;;;;0.82;84.86;100497.41;1744680;82;21286;-60
2020/12/16 03:20:09;;;;;;;65.25;29.85;;;;;;;0.77;85.03;100504.71;1708270;82;21258;-61
2020/12/16 03:22:37;;;;;;;55.98;30.27;;;;;;;0.67;85.31;100501.52;1724501;81;21308;-60
2020/12/16 03:25:13;;;;;;;66.30;30.55;;;;;;;0.77;85.22;100502.53;1758492;79;22633;-58
2020/12/16 03:28:01;;;;;;;74.50;30.95;;;;;;;0.76;85.05;100500.36;1718997;82;21196;-59
2020/12/16 03:30:37;;;;;;;75.83;30.80;;;;;;;0.75;85.41;100508.07;1791008;78;22578;-59
2020/12/16 03:33:22;;;;;;;62.93;31.65;;;;;;;0.70;85.54;100502.98;1724349;80;21136;-60
2020/12/16 03:35:58;;;;;;;69.80;33.65;;;;;;;0.90;85.17;100499.48;1758909;79;22583;-58
2020/12/16 03:38:26;;;;;;;87.17;33.80;;;;;;;0.92;84.93;100512.17;1695849;83;21725;-58
2020/12/16 03:40:57;;;;;;;107.05;33.90;;;;;;;0.87;85.09;100511.93;1633960;83;21299;-58
2020/12/16 03:43:26;;;;;;;60.85;30.60;;;;;;;0.82;85.32;100513.50;1712528;83;21164;-59
2020/12/16 03:45:53;;;;;;;70.28;32.17;;;;;;;0.88;85.11;100510.92;1680963;83;21157;-58
2020/12/16 03:48:21;;;;;;;71.90;28.62;;;;;;;0.96;84.75;100507.26;1718790;83;21172;-59
2020/12/16 03:50:50;;;;;;;91.30;32.10;;;;;;;0.91;84.84;100507.02;1645621;83;21164;-59
2020/12/16 03:53:17;;;;;;;60.12;30.20;;;;;;;0.82;85.06;100514.84;1684174;83;21125;-58
2020/12/16 03:56:11;;;;;;;65.85;30.70;;;;;;;0.89;85.03;100512.55;1768360;79;22625;-58
2020/12/16 03:58:45;;;;;;;60.38;30.20;;;;;;;0.97;84.64;100513.78;1729635;82;21683;-61
2020/12/16 04:01:19;;;;;;;83.12;28.32;;;;;;;0.93;84.79;100513.00;1707922;82;21186;-61
2020/12/16 04:03:48;;;;;;;65.00;31.77;;;;;;;0.86;84.99;100505.41;1721304;82;21140;-60
2020/12/16 04:06:23;;;;;;;61.73;28.83;;;;;;;0.94;84.83;100510.66;1789344;79;22539;-59
2020/12/16 04:08:52;;;;;;;62.83;30.12;;;;;;;0.92;84.58;100504.13;1778120;80;21106;-59
2020/12/16 04:11:34;;;;;;;67.20;30.45;;;;;;;0.89;84.79;100500.49;1750292;79;23427;-59
2020/12/16 04:14:03;;;;;;;60.15;30.10;;;;;;;0.76;84.94;100508.91;1682268;83;21814;-60
2020/12/16 04:16:33;;;;;;;49.63;27.07;;;;;;;0.81;84.78;100506.00;1655296;83;21121;-60
2020/12/16 04:19:02;;;;;;;73.83;33.18;;;;;;;0.85;84.67;100511.81;1670293;83;21623;-61
2020/12/16 04:21:30;;;;;;;81.87;29.90;;;;;;;0.66;84.85;100487.78;1673915;83;21297;-61
2020/12/16 04:23:58;;;;;;;61.42;29.57;;;;;;;0.72;85.08;100504.44;1720603;83;21165;-61
2020/12/16 04:26:29;;;;;;;59.60;30.45;;;;;;;0.78;85.00;100507.69;1649587;83;21350;-61
2020/12/16 04:28:59;;;;;;;56.50;30.00;;;;;;;0.91;84.68;100511.87;1689219;83;21180;-61
2020/12/16 04:31:26;;;;;;;62.20;31.40;;;;;;;0.87;84.82;100509.75;1692263;83;21215;-60
2020/12/16 04:33:54;;;;;;;56.40;29.75;;;;;;;0.77;85.04;100507.90;1691553;83;21735;-61
2020/12/16 04:36:21;;;;;;;50.48;28.77;;;;;;;0.78;84.94;100506.34;1670576;83;21138;-60
2020/12/16 04:38:49;;;;;;;58.85;30.32;;;;;;;0.86;84.61;100518.30;1694742;83;21211;-61
2020/12/16 04:41:16;;;;;;;60.92;30.43;;;;;;;0.80;84.81;100516.89;1665241;85;21750;-61
2020/12/16 04:43:45;;;;;;;55.30;30.12;;;;;;;0.71;85.04;100520.72;1700098;83;21145;-60
2020/12/16 04:46:15;;;;;;;50.63;29.18;;;;;;;0.78;84.99;100526.45;1706306;83;21883;-60
2020/12/16 04:48:46;;;;;;;56.18;29.50;;;;;;;0.93;84.61;100529.09;1720176;83;21928;-60
2020/12/16 04:51:25;;;;;;;56.73;27.80;;;;;;;0.92;84.72;100524.23;1759365;79;23555;-58
2020/12/16 04:53:54;;;;;;;62.83;33.25;;;;;;;0.81;84.84;100521.24;1715685;83;21557;-59
2020/12/16 04:56:23;;;;;;;54.65;29.23;;;;;;;0.78;84.88;100522.97;1711817;83;21173;-59
2020/12/16 04:59:09;;;;;;;55.67;30.75;;;;;;;0.80;84.73;100520.91;1719753;82;22157;-61
2020/12/16 05:01:40;;;;;;;59.88;30.95;;;;;;;0.74;84.76;100518.50;1692327;83;21569;-60
2020/12/16 05:04:10;;;;;;;50.60;28.07;;;;;;;0.64;85.16;100519.28;1719626;83;21163;-60
2020/12/16 05:06:49;;;;;;;53.95;28.62;;;;;;;0.65;85.20;100516.09;1703448;83;21299;-60
2020/12/16 05:09:16;;;;;;;54.95;29.77;;;;;;;0.73;84.92;100520.01;1722360;83;21359;-60
2020/12/16 05:11:48;;;;;;;49.20;26.77;;;;;;;0.63;85.13;100516.30;1706410;83;21176;-60
2020/12/16 05:14:23;;;;;;;48.63;28.60;;;;;;;0.56;85.38;100519.41;1711661;83;21282;-60
2020/12/16 05:17:06;;;;;;;52.37;30.93;;;;;;;0.62;85.29;100513.80;1688082;84;21186;-60
2020/12/16 05:19:44;;;;;;;45.40;26.23;;;;;;;0.63;85.07;100506.92;1703530;83;22460;-60
2020/12/16 05:22:24;;;;;;;41.53;25.30;;;;;;;0.55;85.25;100514.23;1720802;83;21187;-60
2020/12/16 05:24:53;;;;;;;41.50;24.75;;;;;;;0.50;85.30;100506.75;1687392;83;21424;-60
2020/12/16 05:27:27;;;;;;;46.40;26.62;;;;;;;0.61;84.76;100510.28;1718513;83;21125;-60
2020/12/16 05:30:00;;;;;;;41.10;23.77;;;;;;;0.60;84.61;100501.95;1713794;83;21690;-60
2020/12/16 05:32:34;;;;;;;40.17;22.65;;;;;;;0.52;84.80;100500.70;1695431;83;21134;-60
2020/12/16 05:35:24;;;;;;;34.00;19.55;;;;;;;0.49;84.66;100496.57;1679506;83;21155;-60
2020/12/16 05:37:53;;;;;;;33.02;19.17;;;;;;;0.60;84.07;100495.75;1712108;83;21133;-60
2020/12/16 05:40:21;;;;;;;34.63;17.20;;;;;;;0.56;83.96;100496.64;1722187;83;21303;-60
2020/12/16 05:42:49;;;;;;;31.35;18.40;;;;;;;0.48;83.85;100497.58;1708429;83;21160;-60
2020/12/16 05:45:21;;;;;;;30.23;17.05;;;;;;;0.52;83.39;100496.69;1721501;83;21319;-60
2020/12/16 05:48:11;;;;;;;29.65;17.10;;;;;;;0.61;83.07;100495.55;1718661;83;21181;-60
2020/12/16 05:50:48;;;;;;;26.12;15.03;;;;;;;0.60;83.26;100507.30;1686311;83;21145;-60
2020/12/16 05:53:27;;;;;;;27.13;15.50;;;;;;;0.55;83.26;100516.91;1728285;83;21150;-60
2020/12/16 05:56:01;;;;;;;25.90;14.80;;;;;;;0.62;83.13;100509.78;1696850;83;21140;-60
2020/12/16 05:58:31;;;;;;;28.20;15.72;;;;;;;0.66;82.69;100509.73;1728870;83;21145;-60
2020/12/16 06:01:03;;;;;;;23.52;13.90;;;;;;;0.59;82.94;100510.16;1704524;83;21141;-59
2020/12/16 06:03:33;;;;;;;23.92;13.38;;;;;;;0.54;83.02;100512.05;1706616;83;21177;-60
2020/12/16 06:06:08;;;;;;;24.30;13.70;;;;;;;0.61;82.87;100515.64;1716321;83;21599;-60
2020/12/16 06:08:43;;;;;;;21.80;13.65;;;;;;;0.71;82.51;100514.83;1700613;83;21149;-61
2020/12/16 06:11:13;;;;;;;22.07;13.08;;;;;;;0.62;82.12;100520.50;1697201;84;21315;-61
2020/12/16 06:13:45;;;;;;;22.52;14.38;;;;;;;0.59;82.41;100521.71;1673773;83;21168;-60
2020/12/16 06:16:13;;;;;;;17.42;11.65;;;;;;;0.64;82.40;100518.48;1730134;81;21303;-60
2020/12/16 06:18:45;;;;;;;22.40;14.03;;;;;;;0.73;81.85;100520.84;1730317;83;21314;-59
2020/12/16 06:21:13;;;;;;;21.40;13.65;;;;;;;0.70;82.11;100526.59;1730355;81;21113;-60
2020/12/16 06:23:44;;;;;;;24.12;14.23;;;;;;;0.63;82.41;100531.04;1730276;83;21170;-60
2020/12/16 06:26:19;;;;;;;25.57;15.35;;;;;;;0.71;82.29;100531.44;1703268;83;21215;-60
2020/12/16 06:28:46;;;;;;;23.18;15.50;;;;;;;0.84;82.07;100539.12;1700712;83;21165;-61
2020/12/16 06:31:28;;;;;;;25.23;15.93;;;;;;;0.79;82.10;100535.33;1699664;84;21577;-61
2020/12/16 06:34:05;;;;;;;26.55;15.38;;;;;;;0.68;82.32;100531.80;1700679;83;21181;-61
2020/12/16 06:36:40;;;;;;;23.98;15.18;;;;;;;0.64;82.22;100521.96;1699757;84;21222;-61
2020/12/16 06:39:21;;;;;;;33.25;20.25;;;;;;;0.84;82.04;100539.12;1699774;84;21181;-61
2020/12/16 06:42:00;;;;;;;27.50;17.32;;;;;;;0.78;82.23;100541.73;1699780;84;21635;-61
2020/12/16 06:44:27;;;;;;;29.57;17.07;;;;;;;0.69;82.43;100542.84;1713427;83;21176;-60
2020/12/16 06:46:56;;;;;;;26.48;16.90;;;;;;;0.76;82.21;100545.92;1712157;82;21132;-61
2020/12/16 06:49:27;;;;;;;33.02;22.27;;;;;;;0.83;82.05;100549.51;1717319;83;21176;-60
2020/12/16 06:52:10;;;;;;;31.70;22.00;;;;;;;0.79;82.20;100541.52;1706501;83;21321;-60
2020/12/16 06:54:44;;;;;;;43.28;26.07;;;;;;;0.72;82.35;100544.63;1701149;83;21177;-61
2020/12/16 06:57:15;;;;;;;32.70;20.65;;;;;;;0.78;82.12;100547.89;1706381;83;21163;-61
2020/12/16 06:59:57;;;;;;;27.10;16.70;;;;;;;0.85;81.82;100550.67;1691952;83;21888;-60
2020/12/16 07:02:35;;;;;;;22.48;15.15;;;;;;;0.77;82.04;100554.80;1696652;83;21154;-59
2020/12/16 07:05:06;;;;;;;28.83;17.60;;;;;;;0.70;82.22;100551.21;1692636;85;21185;-60
2020/12/16 07:07:49;;;;;;;33.42;19.92;;;;;;;0.76;81.96;100543.75;1666870;85;21316;-60
2020/12/16 07:10:40;;;;;;;24.30;14.23;;;;;;;0.83;81.70;100545.99;1667219;85;21201;-59
2020/12/16 07:13:29;;;;;;;21.57;13.78;;;;;;;0.78;81.62;100552.45;1693140;83;21114;-60
2020/12/16 07:16:09;;;;;;;20.65;13.72;;;;;;;0.74;82.02;100541.78;1692160;85;21337;-59
2020/12/16 07:18:51;;;;;;;18.27;11.57;;;;;;;0.91;81.66;100546.72;1695184;83;21177;-60
2020/12/16 07:21:21;;;;;;;19.07;12.03;;;;;;;0.98;81.19;100544.11;1709439;83;21311;-60
2020/12/16 07:24:13;;;;;;;16.32;11.38;;;;;;;0.91;81.41;100542.70;1665898;85;21137;-60
2020/12/16 07:26:53;;;;;;;16.48;10.25;;;;;;;0.83;80.96;100546.83;1692628;83;21176;-59
2020/12/16 07:29:30;;;;;;;16.77;10.93;;;;;;;0.98;80.89;100559.69;1693908;85;21186;-60
2020/12/16 07:32:05;;;;;;;14.90;9.78;;;;;;;1.06;80.63;100559.25;1697753;83;21711;-59
2020/12/16 07:34:52;;;;;;;16.87;10.60;;;;;;;0.98;80.24;100553.48;1699325;83;21149;-60
2020/12/16 07:37:23;;;;;;;17.12;10.25;;;;;;;0.92;80.61;100550.23;1693691;83;21170;-59
2020/12/16 07:39:55;;;;;;;14.53;9.83;;;;;;;1.00;80.52;100551.44;1697256;83;21148;-60
2020/12/16 07:42:27;;;;;;;14.18;9.48;;;;;;;1.09;80.00;100556.18;1668119;83;21106;-60
2020/12/16 07:45:00;;;;;;;13.83;9.15;;;;;;;1.03;80.25;100555.08;1656756;86;21743;-60
2020/12/16 07:47:28;;;;;;;13.25;8.33;;;;;;;1.00;79.76;100560.82;1696367;83;21181;-59
2020/12/16 07:49:55;;;;;;;12.93;8.15;;;;;;;1.02;79.82;100560.64;1722150;83;21188;-60
2020/12/16 07:52:24;;;;;;;12.28;8.05;;;;;;;1.17;79.01;100560.89;1709373;83;21134;-60
2020/12/16 07:54:52;;;;;;;13.90;9.40;;;;;;;1.17;78.91;100558.21;1709274;82;21278;-60
2020/12/16 07:57:32;;;;;;;12.43;7.55;;;;;;;1.14;79.20;100559.94;1710096;84;21682;-59
2020/12/16 07:59:59;;;;;;;10.30;6.97;;;;;;;1.09;79.10;100561.03;1709115;82;21150;-59
2020/12/16 08:02:26;;;;;;;12.35;7.53;;;;;;;1.16;78.57;100554.40;1709382;84;21300;-59
2020/12/16 08:04:58;;;;;;;12.13;7.28;;;;;;;1.08;78.31;100549.15;1703514;83;21299;-60
2020/12/16 08:07:26;;;;;;;10.88;7.10;;;;;;;1.15;78.76;100557.59;1706439;84;21153;-59
2020/12/16 08:10:04;;;;;;;11.33;6.95;;;;;;;1.11;78.79;100556.30;1690297;84;21307;-60
2020/12/16 08:12:34;;;;;;;11.48;7.08;;;;;;;1.15;79.02;100563.45;1690724;84;21161;-61
2020/12/16 08:15:14;;;;;;;9.53;6.47;;;;;;;1.31;78.57;100559.20;1677088;84;21166;-61
2020/12/16 08:17:42;;;;;;;9.63;5.85;;;;;;;1.32;78.47;100558.16;1635878;87;21186;-61
2020/12/16 08:20:13;;;;;;;10.60;6.20;;;;;;;1.26;78.26;100562.45;1674309;85;21706;-61
2020/12/16 08:22:45;;;;;;;11.73;6.10;;;;;;;1.22;78.67;100564.35;1670807;85;21638;-61
2020/12/16 08:25:12;;;;;;;8.00;5.20;;;;;;;1.30;78.58;100565.07;1698555;84;21582;-61
2020/12/16 08:27:53;;;;;;;8.03;4.65;;;;;;;1.37;78.22;100560.59;1635440;87;21307;-61
2020/12/16 08:30:21;;;;;;;8.05;5.45;;;;;;;1.30;77.96;100558.36;1670954;84;21195;-61
2020/12/16 08:33:09;;;;;;;10.30;6.20;;;;;;;1.22;78.27;100554.97;1709195;84;21621;-61
2020/12/16 08:35:54;;;;;;;8.15;5.37;;;;;;;1.17;78.54;100559.55;1680345;84;21507;-60
2020/12/16 08:38:42;;;;;;;9.90;5.80;;;;;;;1.30;78.25;100557.02;1709426;84;21165;-61
2020/12/16 08:41:13;;;;;;;8.88;5.47;;;;;;;1.28;78.21;100553.69;1709088;82;21190;-61
2020/12/16 08:43:42;;;;;;;9.60;6.75;;;;;;;1.22;78.66;100554.97;1703667;82;21636;-61
2020/12/16 08:46:13;;;;;;;10.95;6.20;;;;;;;1.19;78.82;100553.50;1698476;82;21199;-61
2020/12/16 08:49:02;;;;;;;8.25;5.62;;;;;;;1.31;78.45;100549.81;1720555;81;21248;-61
2020/12/16 08:51:39;;;;;;;8.60;5.25;;;;;;;1.36;78.25;100554.91;1693045;83;21150;-61
2020/12/16 08:54:10;;;;;;;8.03;5.93;;;;;;;1.29;78.53;100545.13;1683542;84;21141;-62
2020/12/16 08:56:40;;;;;;;8.18;6.00;;;;;;;1.21;78.90;100550.11;1700602;83;21101;-61
2020/12/16 08:59:16;;;;;;;8.05;5.50;;;;;;;1.26;78.67;100541.49;1715868;83;21192;-62
2020/12/16 09:01:46;;;;;;;8.90;6.20;;;;;;;1.34;78.66;100546.73;1693023;84;21125;-61
2020/12/16 09:04:37;;;;;;;9.55;6.37;;;;;;;1.31;78.88;100551.16;1700328;83;21574;-62
2020/12/16 09:07:12;;;;;;;9.35;6.50;;;;;;;1.23;78.99;100552.10;1700248;84;21198;-61
2020/12/16 09:09:43;;;;;;;7.92;5.62;;;;;;;1.20;79.20;100547.63;1685831;85;21742;-62
2020/12/16 09:12:12;;;;;;;10.03;6.80;;;;;;;1.30;78.91;100542.77;1699308;84;21593;-61
2020/12/16 09:14:51;;;;;;;11.08;6.65;;;;;;;1.30;79.10;100548.97;1700412;84;21195;-62
2020/12/16 09:17:19;;;;;;;11.18;7.40;;;;;;;1.27;79.30;100539.98;1685864;84;21317;-63
2020/12/16 09:19:46;;;;;;;13.83;9.05;;;;;;;1.24;79.57;100540.33;1672713;84;21166;-63
2020/12/16 09:22:14;;;;;;;13.30;8.00;;;;;;;1.33;79.54;100548.59;1699827;83;21184;-62
2020/12/16 09:24:41;;;;;;;11.18;8.23;;;;;;;1.44;79.28;100548.07;1710106;83;21164;-62
2020/12/16 09:27:09;;;;;;;12.47;8.95;;;;;;;1.38;79.33;100547.48;1691127;83;21153;-61
2020/12/16 09:29:47;;;;;;;12.60;8.80;;;;;;;1.35;79.52;100551.06;1701371;83;21329;-62
2020/12/16 09:32:20;;;;;;;11.78;7.95;;;;;;;1.29;79.73;100551.33;1699878;83;21166;-62
2020/12/16 09:34:49;;;;;;;10.65;7.35;;;;;;;1.37;79.29;100549.87;1704763;83;21303;-62
2020/12/16 09:37:36;;;;;;;10.45;7.50;;;;;;;1.34;78.83;100544.89;1704802;83;21189;-62
2020/12/16 09:40:07;;;;;;;11.90;8.73;;;;;;;1.28;79.21;100542.95;1700489;84;21309;-62
2020/12/16 09:42:35;;;;;;;12.28;8.80;;;;;;;1.18;79.43;100534.91;1700770;83;21352;-62
2020/12/16 09:45:18;;;;;;;10.75;7.92;;;;;;;1.22;79.61;100534.84;1667584;84;21312;-61
2020/12/16 09:47:46;;;;;;;12.65;8.90;;;;;;;1.24;79.48;100532.28;1685168;84;21190;-63
2020/12/16 09:50:14;;;;;;;12.78;9.15;;;;;;;1.20;79.71;100533.72;1699650;83;21565;-62
2020/12/16 09:52:41;;;;;;;11.93;7.92;;;;;;;1.14;79.96;100531.78;1693328;84;21334;-60
2020/12/16 09:55:20;;;;;;;12.10;8.65;;;;;;;1.18;79.62;100520.16;1677570;84;21167;-62
2020/12/16 09:58:11;;;;;;;11.15;7.65;;;;;;;1.22;79.51;100524.95;1679513;85;21217;-61
2020/12/16 10:00:40;;;;;;;11.93;8.73;;;;;;;1.18;79.67;100526.36;1634788;88;21221;-62
2020/12/16 10:03:18;;;;;;;10.93;8.28;;;;;;;1.13;79.95;100523.44;1647799;87;21181;-62
2020/12/16 10:05:45;;;;;;;11.03;7.80;;;;;;;1.18;79.80;100522.34;1693301;82;21150;-62
2020/12/16 10:10:49;;;;;;;11.68;9.10;;;;;;;1.20;79.43;100512.77;1751742;79;28276;-61
2020/12/16 10:13:20;;;;;;;9.18;7.22;;;;;;;1.38;78.96;100516.62;1722571;83;21189;-61
2020/12/16 10:15:47;;;;;;;8.83;6.53;;;;;;;1.60;78.30;100515.25;1691025;84;21212;-61
2020/12/16 10:18:14;;;;;;;11.00;7.95;;;;;;;1.58;78.18;100520.00;1690979;83;21802;-61
2020/12/16 10:20:42;;;;;;;11.50;7.72;;;;;;;1.47;78.62;100510.63;1705616;83;21161;-61
2020/12/16 10:23:09;;;;;;;9.95;7.72;;;;;;;1.41;78.91;100506.05;1658340;83;21145;-61
2020/12/16 10:25:36;;;;;;;10.08;7.37;;;;;;;1.44;78.74;100503.80;1722715;83;21185;-61
2020/12/16 10:28:09;;;;;;;10.75;7.47;;;;;;;1.51;78.52;100503.84;1712115;83;21652;-61
2020/12/16 10:30:33;;;;;;;11.60;7.97;;;;;;;1.44;78.58;100512.36;1713123;83;21499;-61
2020/12/16 10:33:00;;;;;;;10.93;8.00;;;;;;;1.33;78.96;100504.83;1650458;87;21333;-60
2020/12/16 10:35:28;;;;;;;11.03;8.20;;;;;;;1.25;79.22;100509.81;1670451;85;21385;-61
2020/12/16 10:37:55;;;;;;;11.05;7.97;;;;;;;1.27;79.27;100503.77;1683539;85;21172;-61
2020/12/16 10:40:22;;;;;;;12.23;8.70;;;;;;;1.35;79.01;100498.75;1683091;85;21246;-61
2020/12/16 10:42:50;;;;;;;12.82;8.63;;;;;;;1.27;79.29;100497.05;1663032;85;21665;-61
2020/12/16 10:45:17;;;;;;;17.27;10.48;;;;;;;1.17;79.55;100496.53;1656138;85;21322;-61
2020/12/16 10:47:45;;;;;;;21.33;11.15;;;;;;;1.14;79.82;100494.23;1668192;85;21310;-61
2020/12/16 10:50:12;;;;;;;16.80;9.78;;;;;;;1.29;79.59;100495.00;1651369;84;21198;-61
2020/12/16 10:52:39;;;;;;;21.30;12.60;;;;;;;1.33;79.42;100484.71;1654958;85;21326;-60
2020/12/16 10:55:06;;;;;;;13.50;9.90;;;;;;;1.26;79.48;100487.84;1683401;84;21346;-63
2020/12/16 10:57:34;;;;;;;13.55;9.68;;;;;;;1.14;79.28;100482.17;1683562;85;21200;-60
2020/12/16 11:00:01;;;;;;;11.18;8.55;;;;;;;1.18;79.31;100492.83;1669411;85;21192;-60
2020/12/16 11:02:28;;;;;;;12.55;9.33;;;;;;;1.27;78.97;100486.84;1649761;86;21176;-60
2020/12/16 11:04:55;;;;;;;13.45;9.75;;;;;;;1.20;79.10;100488.13;1654629;85;21343;-61
2020/12/16 11:07:22;;;;;;;13.93;10.08;;;;;;;1.08;79.19;100478.09;1628733;85;21340;-63
2020/12/16 11:09:50;;;;;;;10.95;8.88;;;;;;;1.02;79.44;100484.23;1669989;84;21210;-62
2020/12/16 11:12:17;;;;;;;11.63;9.45;;;;;;;1.11;79.10;100478.53;1713298;84;21316;-62
2020/12/16 11:14:44;;;;;;;13.90;10.03;;;;;;;1.13;79.06;100478.36;1713270;83;21181;-63
2020/12/16 11:17:12;;;;;;;14.05;10.72;;;;;;;1.00;79.34;100474.52;1713057;82;21315;-60
2020/12/16 11:19:40;;;;;;;13.08;10.03;;;;;;;0.94;79.66;100479.82;1713114;84;21200;-61
2020/12/16 11:22:07;;;;;;;13.10;10.30;;;;;;;1.01;79.71;100474.02;1696487;84;21203;-61
2020/12/16 11:24:35;;;;;;;12.73;9.43;;;;;;;1.08;79.41;100470.87;1699405;84;21171;-61
2020/12/16 11:27:02;;;;;;;14.50;11.00;;;;;;;1.00;79.50;100477.70;1666607;84;21177;-61
2020/12/16 11:29:31;;;;;;;17.45;12.28;;;;;;;0.92;79.88;100474.64;1688667;84;21138;-61
2020/12/16 11:32:03;;;;;;;13.40;10.00;;;;;;;0.87;80.30;100469.55;1694925;84;21660;-61
2020/12/16 11:34:34;;;;;;;14.45;11.33;;;;;;;0.98;79.95;100469.04;1654822;86;21155;-61
2020/12/16 11:37:02;;;;;;;16.20;11.60;;;;;;;1.04;79.82;100471.45;1671347;84;21623;-61
2020/12/16 11:39:29;;;;;;;14.98;11.05;;;;;;;0.98;80.05;100480.59;1712378;84;21327;-61
2020/12/16 11:41:56;;;;;;;17.17;12.03;;;;;;;0.95;80.31;100480.15;1712683;83;21316;-61
2020/12/16 11:44:24;;;;;;;17.20;12.10;;;;;;;0.99;80.20;100479.55;1694030;84;21209;-60